Time;durP1;ratioP1;P1;durP2;ratioP2;P2;SDS_P1;SDS_P2;PMS_P1;PMS_P2;Temp;Humidity;BMP_temperature;BMP_pressure;BME280_temperature;BME280_humidity;BME280_pressure;Samples;Min_cycle;Max_cycle;Signal;HPM_P1;HPM_P2
2021/01/20 00:02:25;;;;;;;16.00;7.30;;;2.00;99.90;;;;;;5012822;28;20211;-69
2021/01/20 00:04:53;;;;;;;25.77;8.93;;;2.00;99.90;;;;;;5012725;28;20203;-69
2021/01/20 00:07:19;;;;;;;34.57;11.33;;;2.00;99.90;;;;;;4973095;28;20235;-70
2021/01/20 00:09:46;;;;;;;41.17;11.20;;;2.00;99.90;;;;;;4973258;28;20633;-69
2021/01/20 00:12:12;;;;;;;29.50;9.90;;;1.90;99.90;;;;;;4973194;28;20227;-70
2021/01/20 00:14:39;;;;;;;22.70;8.47;;;2.00;99.90;;;;;;4973166;28;20200;-69
2021/01/20 00:17:06;;;;;;;23.93;9.37;;;2.00;99.90;;;;;;4957206;28;20228;-69
2021/01/20 00:19:32;;;;;;;24.00;8.63;;;2.00;99.90;;;;;;4934560;29;20678;-69
2021/01/20 00:22:00;;;;;;;19.80;7.80;;;2.00;99.90;;;;;;4919332;29;20206;-70
2021/01/20 00:24:26;;;;;;;18.37;7.10;;;2.00;99.90;;;;;;4912639;29;20207;-69
2021/01/20 00:26:53;;;;;;;14.33;7.20;;;2.00;99.90;;;;;;4915397;29;20245;-69
2021/01/20 00:29:19;;;;;;;17.67;7.13;;;2.00;99.90;;;;;;4965874;28;20251;-69
2021/01/20 00:31:46;;;;;;;14.87;6.87;;;2.00;99.90;;;;;;4972914;28;20551;-69
2021/01/20 00:34:13;;;;;;;14.37;7.00;;;2.00;99.90;;;;;;4972913;28;20214;-70
2021/01/20 00:36:39;;;;;;;13.00;7.37;;;2.00;99.90;;;;;;4972495;28;20675;-70
2021/01/20 00:39:07;;;;;;;14.47;7.00;;;2.00;99.90;;;;;;4972850;28;20197;-69
2021/01/20 00:41:33;;;;;;;15.90;7.13;;;1.90;99.90;;;;;;4972731;28;20220;-69
2021/01/20 00:44:00;;;;;;;14.10;7.67;;;2.00;99.90;;;;;;4976147;28;20254;-69
2021/01/20 00:46:30;;;;;;;14.10;7.20;;;2.00;99.90;;;;;;4992515;28;20262;-69
2021/01/20 00:48:57;;;;;;;12.97;7.10;;;2.00;99.90;;;;;;4992023;28;20630;-69
2021/01/20 00:51:23;;;;;;;20.17;9.37;;;2.00;99.90;;;;;;4975743;28;20640;-69
2021/01/20 00:53:50;;;;;;;35.97;12.43;;;2.00;99.90;;;;;;4988891;28;20235;-70
2021/01/20 00:56:18;;;;;;;46.73;15.30;;;2.00;99.90;;;;;;5008766;28;20211;-69
2021/01/20 00:58:44;;;;;;;37.70;12.87;;;2.00;99.90;;;;;;4994905;28;20207;-69
2021/01/20 01:01:11;;;;;;;29.33;11.00;;;2.00;99.90;;;;;;4992263;28;20215;-70
2021/01/20 01:03:38;;;;;;;24.97;11.10;;;2.00;99.90;;;;;;4972347;28;20201;-69
2021/01/20 01:06:06;;;;;;;19.67;9.83;;;2.00;99.90;;;;;;4972516;28;20235;-70
2021/01/20 01:08:33;;;;;;;20.93;10.33;;;2.00;99.90;;;;;;4952978;29;20205;-70
2021/01/20 01:11:02;;;;;;;21.00;10.10;;;2.00;99.90;;;;;;4933794;29;20686;-69
2021/01/20 01:13:50;;;;;;;33.83;12.53;;;2.10;99.90;;;;;;4914718;29;20668;-70
2021/01/20 01:16:43;;;;;;;33.60;13.73;;;2.00;99.90;;;;;;4929754;29;20715;-70
2021/01/20 01:19:12;;;;;;;35.87;12.77;;;2.00;99.90;;;;;;4972088;28;20698;-69
2021/01/20 01:21:39;;;;;;;34.57;10.97;;;2.10;99.90;;;;;;4972073;28;20203;-69
2021/01/20 01:24:07;;;;;;;25.23;10.73;;;2.10;99.90;;;;;;4991962;28;20261;-70
2021/01/20 01:26:34;;;;;;;19.90;9.80;;;2.10;99.90;;;;;;4971921;28;20220;-70
2021/01/20 01:29:01;;;;;;;20.50;9.00;;;2.00;99.90;;;;;;4979357;28;20657;-70
2021/01/20 01:31:41;;;;;;;19.43;8.27;;;2.10;99.90;;;;;;4991438;28;20206;-70
2021/01/20 01:34:08;;;;;;;21.17;9.93;;;2.00;99.90;;;;;;4971940;28;20215;-69
2021/01/20 01:36:34;;;;;;;18.13;8.53;;;2.10;99.90;;;;;;4966546;28;20702;-69
2021/01/20 01:39:15;;;;;;;20.77;9.37;;;2.00;99.90;;;;;;4952852;29;20209;-69
2021/01/20 01:41:46;;;;;;;22.73;8.90;;;2.00;99.90;;;;;;4938356;29;20201;-70
2021/01/20 01:44:17;;;;;;;21.10;9.37;;;2.00;99.90;;;;;;4958594;28;20205;-69
2021/01/20 01:46:53;;;;;;;20.37;9.23;;;2.00;99.90;;;;;;4915040;29;20337;-69
2021/01/20 01:49:36;;;;;;;19.07;8.67;;;2.00;99.90;;;;;;4941709;29;20299;-70
2021/01/20 01:52:05;;;;;;;16.43;8.27;;;2.00;99.90;;;;;;4951625;29;20318;-69
2021/01/20 01:54:39;;;;;;;19.43;8.50;;;2.00;99.90;;;;;;4943441;29;20205;-69
2021/01/20 01:57:16;;;;;;;16.57;7.90;;;2.00;99.90;;;;;;4937581;29;20202;-69
2021/01/20 01:59:50;;;;;;;17.43;8.57;;;2.10;99.90;;;;;;4937465;29;20237;-69
2021/01/20 02:02:38;;;;;;;20.33;9.10;;;2.10;99.90;;;;;;4937123;29;20237;-69
2021/01/20 02:05:07;;;;;;;19.40;8.83;;;2.10;99.90;;;;;;4937093;29;20213;-69
2021/01/20 02:07:38;;;;;;;18.23;9.20;;;2.10;99.90;;;;;;4890014;29;20227;-70
2021/01/20 02:10:06;;;;;;;22.57;8.97;;;2.10;99.90;;;;;;4918022;29;20217;-70
2021/01/20 02:13:01;;;;;;;17.63;8.53;;;2.10;99.90;;;;;;4900828;29;20207;-69
2021/01/20 02:15:39;;;;;;;25.43;11.00;;;2.10;99.90;;;;;;4883716;29;20235;-69
2021/01/20 02:18:10;;;;;;;61.27;16.90;;;2.10;99.90;;;;;;4899659;29;20238;-69
2021/01/20 02:21:43;;;;;;;47.37;13.47;;;2.10;99.90;;;;;;4910966;29;20635;-69
2021/01/20 02:24:47;;;;;;;30.23;10.37;;;2.10;99.90;;;;;;4880242;29;20298;-70
2021/01/20 02:27:55;;;;;;;19.13;9.17;;;2.20;99.90;;;;;;4893373;29;20243;-69
2021/01/20 02:30:26;;;;;;;21.60;8.70;;;2.20;99.90;;;;;;4879979;29;20208;-70
2021/01/20 02:33:11;;;;;;;27.63;8.90;;;2.20;99.90;;;;;;4880194;29;20208;-69
2021/01/20 02:35:57;;;;;;;88.87;20.50;;;2.20;99.90;;;;;;4880091;29;20208;-69
2021/01/20 02:38:26;;;;;;;87.60;22.93;;;2.20;99.90;;;;;;4861729;29;20337;-69
2021/01/20 02:41:06;;;;;;;63.37;17.67;;;2.20;99.90;;;;;;4843398;29;20210;-69
2021/01/20 02:57:42;;;;;;;20.13;9.83;;;2.20;99.90;;;;;;4848105;29;20211;-70
2021/01/20 03:00:15;;;;;;;20.50;9.90;;;2.30;99.90;;;;;;4847205;29;20216;-69
2021/01/20 03:02:49;;;;;;;18.77;8.57;;;2.30;99.90;;;;;;4936307;29;20296;-69
2021/01/20 03:05:18;;;;;;;23.43;10.00;;;2.30;99.90;;;;;;4937064;29;20260;-69
2021/01/20 03:07:45;;;;;;;29.00;12.17;;;2.30;99.90;;;;;;4936072;29;20221;-69
2021/01/20 03:10:13;;;;;;;25.93;12.57;;;2.30;99.90;;;;;;4966966;28;20201;-69
2021/01/20 03:12:43;;;;;;;26.63;11.47;;;2.30;99.90;;;;;;4974995;28;20212;-69
2021/01/20 03:15:13;;;;;;;26.07;10.70;;;2.30;99.90;;;;;;4977589;28;20242;-69
2021/01/20 03:17:40;;;;;;;27.63;10.50;;;2.40;99.90;;;;;;4994335;28;20200;-69
2021/01/20 03:20:07;;;;;;;26.90;10.80;;;2.40;99.90;;;;;;5021247;28;20193;-69
2021/01/20 03:22:34;;;;;;;28.83;10.83;;;2.40;99.90;;;;;;5073216;28;20250;-69
2021/01/20 03:25:00;;;;;;;26.63;10.80;;;2.50;99.90;;;;;;5072878;28;20269;-69
2021/01/20 03:27:27;;;;;;;25.37;11.93;;;2.40;99.90;;;;;;5072687;28;20710;-69
2021/01/20 03:29:54;;;;;;;30.90;12.07;;;2.50;99.90;;;;;;5072769;28;20267;-69
2021/01/20 03:32:21;;;;;;;30.20;11.10;;;2.50;99.90;;;;;;5112520;28;20196;-69
2021/01/20 03:34:48;;;;;;;33.00;12.17;;;2.50;99.90;;;;;;5096445;28;20245;-69
2021/01/20 03:37:14;;;;;;;27.30;11.17;;;2.60;99.90;;;;;;5095432;28;20208;-69
2021/01/20 03:39:41;;;;;;;31.93;12.27;;;2.60;99.90;;;;;;5095449;28;20200;-69
2021/01/20 03:42:08;;;;;;;26.60;10.93;;;2.50;99.90;;;;;;5095146;28;20208;-69
2021/01/20 03:44:35;;;;;;;28.73;10.70;;;2.50;99.90;;;;;;5095388;28;20199;-69
2021/01/20 03:47:02;;;;;;;28.93;10.77;;;2.60;99.90;;;;;;5095169;28;20216;-69
2021/01/20 03:49:29;;;;;;;26.60;11.27;;;2.60;99.90;;;;;;5095197;28;20204;-69
2021/01/20 03:51:55;;;;;;;27.00;10.53;;;2.60;99.90;;;;;;5095388;28;20188;-69
2021/01/20 03:54:22;;;;;;;23.00;9.67;;;2.60;99.90;;;;;;5095064;28;20645;-69
2021/01/20 03:56:48;;;;;;;23.53;9.43;;;2.70;99.90;;;;;;5094503;28;20201;-69
2021/01/20 03:59:15;;;;;;;27.73;10.87;;;2.60;99.90;;;;;;5095055;28;20189;-69
2021/01/20 04:01:42;;;;;;;25.43;10.23;;;2.70;99.90;;;;;;5095288;28;20188;-69
2021/01/20 04:04:09;;;;;;;22.13;10.20;;;2.70;99.90;;;;;;5095165;28;20622;-69
2021/01/20 04:06:39;;;;;;;22.57;9.87;;;2.70;99.90;;;;;;5095147;28;20204;-69
2021/01/20 04:09:06;;;;;;;23.07;10.97;;;2.80;99.90;;;;;;5094595;28;20279;-70
2021/01/20 04:11:35;;;;;;;24.83;9.93;;;2.80;99.90;;;;;;5071289;28;20662;-70
2021/01/20 04:14:03;;;;;;;22.97;10.33;;;2.80;99.90;;;;;;5072285;28;20209;-70
2021/01/20 04:16:29;;;;;;;23.37;10.50;;;2.80;99.90;;;;;;5086070;28;20563;-70
2021/01/20 04:18:56;;;;;;;30.70;12.63;;;2.80;99.90;;;;;;5092604;28;20192;-70
2021/01/20 04:21:23;;;;;;;24.73;11.10;;;2.80;99.90;;;;;;5092441;28;20204;-70
2021/01/20 04:23:50;;;;;;;19.70;9.93;;;2.90;99.90;;;;;;5092025;28;20199;-69
2021/01/20 04:26:17;;;;;;;22.23;10.30;;;2.90;99.90;;;;;;5092228;28;20652;-70
2021/01/20 04:28:43;;;;;;;23.20;9.00;;;2.90;99.90;;;;;;5051653;28;20206;-70
2021/01/20 04:31:10;;;;;;;19.97;9.40;;;2.90;99.90;;;;;;5051959;28;20212;-70
2021/01/20 04:33:37;;;;;;;22.57;9.87;;;2.90;99.90;;;;;;5052012;28;20206;-70
2021/01/20 04:36:03;;;;;;;33.27;12.00;;;2.90;99.90;;;;;;5051471;28;20194;-70
2021/01/20 04:38:31;;;;;;;20.87;10.30;;;3.00;99.90;;;;;;5012046;28;20210;-70
2021/01/20 04:40:58;;;;;;;18.30;8.63;;;3.00;99.90;;;;;;5011988;28;20222;-70
2021/01/20 04:43:25;;;;;;;23.97;8.70;;;3.00;99.90;;;;;;5045707;28;20603;-70
2021/01/20 04:45:52;;;;;;;16.23;9.17;;;3.00;99.90;;;;;;5031368;28;20289;-70
2021/01/20 04:48:19;;;;;;;20.90;9.70;;;3.00;99.90;;;;;;5031711;28;20272;-70
2021/01/20 04:50:47;;;;;;;20.47;9.07;;;3.00;99.90;;;;;;5031649;28;20206;-70
2021/01/20 04:53:15;;;;;;;21.40;10.13;;;3.00;99.90;;;;;;5031343;28;20214;-70
2021/01/20 04:55:44;;;;;;;21.30;10.07;;;3.00;99.90;;;;;;5031301;28;20202;-70
2021/01/20 04:58:12;;;;;;;16.50;9.60;;;3.00;99.90;;;;;;5031350;28;20259;-69
2021/01/20 05:00:39;;;;;;;21.77;10.80;;;3.00;99.90;;;;;;5011418;28;20298;-70
2021/01/20 05:03:06;;;;;;;23.20;12.17;;;3.00;99.90;;;;;;5011614;28;20207;-70
2021/01/20 05:05:33;;;;;;;28.27;14.43;;;3.00;99.90;;;;;;4972396;28;20255;-70
2021/01/20 05:08:01;;;;;;;36.00;16.57;;;3.10;99.90;;;;;;4972491;28;20223;-70
2021/01/20 05:10:27;;;;;;;39.13;17.40;;;3.10;99.90;;;;;;5007261;28;20207;-70
2021/01/20 05:12:55;;;;;;;34.53;15.33;;;3.10;99.90;;;;;;5011342;28;20223;-70
2021/01/20 05:15:30;;;;;;;26.67;12.60;;;3.10;99.90;;;;;;5011170;28;20826;-70
2021/01/20 05:17:58;;;;;;;25.93;12.70;;;3.10;99.90;;;;;;5011913;28;20221;-70
2021/01/20 05:20:32;;;;;;;24.00;11.63;;;3.10;99.90;;;;;;5011394;28;20577;-69
2021/01/20 05:23:00;;;;;;;40.00;14.73;;;3.20;99.90;;;;;;5022427;28;20210;-69
2021/01/20 05:25:28;;;;;;;78.60;24.53;;;3.20;99.90;;;;;;5035108;28;20217;-70
2021/01/20 05:27:55;;;;;;;103.87;29.70;;;3.20;99.90;;;;;;5035254;28;20218;-70
2021/01/20 05:30:23;;;;;;;66.97;22.17;;;3.30;99.90;;;;;;5035059;28;20640;-70
2021/01/20 05:32:57;;;;;;;55.13;17.97;;;3.30;99.90;;;;;;5074987;28;20213;-70
2021/01/20 05:35:24;;;;;;;57.67;19.60;;;3.30;99.90;;;;;;5075245;28;20296;-69
2021/01/20 05:37:51;;;;;;;41.70;16.37;;;3.30;99.90;;;;;;5097256;28;20199;-70
2021/01/20 05:40:20;;;;;;;41.33;15.13;;;3.30;99.90;;;;;;5097457;28;20275;-69
2021/01/20 05:42:49;;;;;;;26.77;12.40;;;3.40;99.90;;;;;;5097693;28;20193;-70
2021/01/20 05:45:18;;;;;;;30.17;11.67;;;3.40;99.90;;;;;;5097396;28;20227;-70
2021/01/20 05:48:01;;;;;;;22.63;10.87;;;3.40;99.90;;;;;;5074592;28;20224;-70
2021/01/20 05:50:28;;;;;;;25.43;12.13;;;3.50;99.90;;;;;;5075071;28;20717;-70
2021/01/20 05:53:09;;;;;;;23.13;10.93;;;3.50;99.90;;;;;;5074967;28;20276;-69
2021/01/20 05:55:37;;;;;;;20.67;10.27;;;3.50;99.90;;;;;;5074474;28;20220;-70
2021/01/20 05:58:04;;;;;;;21.03;9.87;;;3.50;99.90;;;;;;5075014;28;20197;-69
2021/01/20 06:00:32;;;;;;;18.73;8.83;;;3.60;99.90;;;;;;5074495;28;20193;-70
2021/01/20 06:02:59;;;;;;;20.97;8.83;;;3.60;99.90;;;;;;5054455;28;20635;-69
2021/01/20 06:05:27;;;;;;;25.00;9.50;;;3.60;99.90;;;;;;5054569;28;20213;-70
2021/01/20 06:07:55;;;;;;;18.97;8.50;;;3.60;99.90;;;;;;5054329;28;20725;-70
2021/01/20 06:10:22;;;;;;;21.13;9.23;;;3.70;99.90;;;;;;5054815;28;20201;-69
2021/01/20 06:12:49;;;;;;;23.00;10.40;;;3.70;99.90;;;;;;5034198;28;20198;-69
2021/01/20 06:15:16;;;;;;;25.00;9.97;;;3.70;99.90;;;;;;4994657;28;20725;-69
2021/01/20 06:17:47;;;;;;;33.00;11.43;;;3.70;99.90;;;;;;4976812;28;20200;-70
2021/01/20 06:20:20;;;;;;;33.87;11.87;;;3.70;99.90;;;;;;4995547;28;20203;-69
2021/01/20 06:22:51;;;;;;;35.40;11.27;;;3.80;99.90;;;;;;4994955;28;20270;-69
2021/01/20 06:25:24;;;;;;;26.97;10.73;;;3.80;99.90;;;;;;4995258;28;20519;-69
2021/01/20 06:27:54;;;;;;;23.17;10.07;;;3.80;99.90;;;;;;4995091;28;20302;-69
2021/01/20 06:30:26;;;;;;;24.27;9.60;;;3.80;99.90;;;;;;4995538;28;20214;-69
2021/01/20 06:32:56;;;;;;;19.00;8.57;;;3.80;99.90;;;;;;4955846;28;20264;-69
2021/01/20 06:35:36;;;;;;;22.07;9.97;;;3.80;99.90;;;;;;4975168;28;20204;-69
2021/01/20 06:38:03;;;;;;;74.63;17.10;;;3.80;99.90;;;;;;4975578;28;20652;-69
2021/01/20 06:40:39;;;;;;;61.87;16.37;;;3.80;99.90;;;;;;4955842;29;20205;-69
2021/01/20 06:43:35;;;;;;;53.87;15.10;;;3.80;99.90;;;;;;4956262;29;20288;-69
2021/01/20 06:46:25;;;;;;;50.75;16.45;;;3.90;99.90;;;;;;4947764;29;20487;-69
2021/01/20 06:49:16;;;;;;;27.97;10.87;;;3.90;99.90;;;;;;4968273;28;20199;-69
2021/01/20 06:52:10;;;;;;;20.43;9.97;;;3.90;99.90;;;;;;4994881;28;20238;-69
2021/01/20 06:54:39;;;;;;;16.60;8.33;;;4.00;99.90;;;;;;4994685;28;20207;-69
2021/01/20 06:57:32;;;;;;;22.93;9.03;;;4.00;99.90;;;;;;5013753;28;20207;-70
2021/01/20 07:00:12;;;;;;;18.07;9.10;;;4.10;99.90;;;;;;4974923;28;20220;-69
2021/01/20 07:02:58;;;;;;;18.23;8.57;;;4.10;99.90;;;;;;4975018;28;20211;-69
2021/01/20 07:05:33;;;;;;;19.70;9.47;;;4.10;99.90;;;;;;4974799;28;20197;-69
2021/01/20 07:08:00;;;;;;;22.53;10.53;;;4.10;99.90;;;;;;4975150;28;20204;-70
2021/01/20 07:10:29;;;;;;;23.13;10.23;;;4.10;99.90;;;;;;4976527;28;20215;-70
2021/01/20 07:13:18;;;;;;;27.37;10.17;;;4.10;99.90;;;;;;5013724;28;20215;-69
2021/01/20 07:15:49;;;;;;;30.87;11.50;;;4.20;99.90;;;;;;4951199;28;20592;-71
2021/01/20 07:18:17;;;;;;;29.77;10.50;;;4.20;99.90;;;;;;4936388;29;20684;-70
2021/01/20 07:20:46;;;;;;;24.80;9.90;;;4.20;99.90;;;;;;4916840;29;20242;-70
2021/01/20 07:23:13;;;;;;;19.60;9.80;;;4.20;99.90;;;;;;4916794;29;20206;-69
2021/01/20 07:25:39;;;;;;;20.27;8.90;;;4.20;99.90;;;;;;4917074;29;20210;-69
2021/01/20 07:28:07;;;;;;;19.67;8.73;;;4.30;99.90;;;;;;4935955;29;20229;-70
2021/01/20 07:30:34;;;;;;;22.63;10.70;;;4.30;99.90;;;;;;4955527;29;20555;-70
2021/01/20 07:33:13;;;;;;;19.40;9.53;;;4.40;99.90;;;;;;4935707;29;20295;-70
2021/01/20 07:35:39;;;;;;;22.57;10.07;;;4.40;99.90;;;;;;4917078;29;20348;-69
2021/01/20 07:38:08;;;;;;;16.10;8.97;;;4.40;99.90;;;;;;4972507;28;20251;-69
2021/01/20 07:40:36;;;;;;;17.23;8.47;;;4.50;99.90;;;;;;4973818;28;20686;-69
2021/01/20 07:43:03;;;;;;;14.03;7.57;;;4.50;99.90;;;;;;4974029;28;20212;-70
2021/01/20 07:45:35;;;;;;;13.17;7.40;;;4.50;99.90;;;;;;4973527;28;20567;-69
2021/01/20 07:48:02;;;;;;;13.53;7.00;;;4.60;99.90;;;;;;4973862;28;20245;-69
2021/01/20 07:50:48;;;;;;;14.73;7.40;;;4.60;99.90;;;;;;4973610;28;20296;-69
2021/01/20 07:53:17;;;;;;;11.47;6.90;;;4.70;99.90;;;;;;5023693;28;20572;-70
2021/01/20 07:55:45;;;;;;;14.20;7.10;;;4.80;99.90;;;;;;5043053;28;20206;-69
2021/01/20 07:58:12;;;;;;;13.47;6.50;;;4.80;99.90;;;;;;5052417;28;20201;-69
2021/01/20 08:00:48;;;;;;;14.73;7.90;;;4.90;99.90;;;;;;5052920;28;20276;-70
2021/01/20 08:03:16;;;;;;;17.50;8.87;;;5.00;99.90;;;;;;5052893;28;20289;-71
2021/01/20 08:05:43;;;;;;;21.33;9.77;;;5.00;99.90;;;;;;5052710;28;20221;-70
2021/01/20 08:08:11;;;;;;;17.73;9.03;;;5.10;99.90;;;;;;5052292;28;20731;-71
2021/01/20 08:10:40;;;;;;;15.27;8.20;;;5.10;99.90;;;;;;5043584;28;20202;-71
2021/01/20 08:13:09;;;;;;;17.03;7.50;;;5.20;99.90;;;;;;5072665;28;20214;-71
2021/01/20 08:15:40;;;;;;;17.17;8.10;;;5.20;99.90;;;;;;5099261;28;20256;-70
2021/01/20 08:18:13;;;;;;;12.30;7.50;;;5.30;99.90;;;;;;5051854;28;20206;-70
2021/01/20 08:20:40;;;;;;;15.90;7.63;;;5.30;99.90;;;;;;5052371;28;20207;-70
2021/01/20 08:23:15;;;;;;;11.10;6.80;;;5.30;99.90;;;;;;5052046;28;20207;-70
2021/01/20 08:25:43;;;;;;;11.67;7.13;;;5.20;99.90;;;;;;5031984;28;20657;-70
2021/01/20 08:28:14;;;;;;;11.77;6.80;;;5.20;99.90;;;;;;5031750;28;20285;-70
2021/01/20 08:30:41;;;;;;;9.63;6.20;;;5.10;99.90;;;;;;5032178;28;20212;-70
2021/01/20 08:33:07;;;;;;;11.27;6.20;;;5.10;99.90;;;;;;5012010;28;20261;-70
2021/01/20 08:35:36;;;;;;;11.40;5.93;;;5.00;99.90;;;;;;5012202;28;20221;-70
2021/01/20 08:38:03;;;;;;;17.87;7.23;;;5.10;99.90;;;;;;4972910;28;20223;-70
2021/01/20 08:40:30;;;;;;;17.60;7.83;;;5.10;99.90;;;;;;4973582;28;20244;-70
2021/01/20 08:42:58;;;;;;;24.23;10.07;;;5.20;99.90;;;;;;4992971;28;20643;-70
2021/01/20 08:45:32;;;;;;;21.40;9.10;;;5.20;99.90;;;;;;4992031;28;20201;-70
2021/01/20 08:48:05;;;;;;;23.07;10.40;;;5.20;99.90;;;;;;4992215;28;20228;-70
2021/01/20 08:50:34;;;;;;;27.77;11.43;;;5.20;99.90;;;;;;4992888;28;20289;-70
2021/01/20 08:53:03;;;;;;;25.67;11.13;;;5.20;99.90;;;;;;4992153;28;20206;-70
2021/01/20 08:55:31;;;;;;;25.03;10.13;;;5.30;99.90;;;;;;4953267;28;20655;-70
2021/01/20 08:58:27;;;;;;;24.57;10.47;;;5.40;99.90;;;;;;4973000;28;20210;-70
2021/01/20 09:00:56;;;;;;;25.20;10.40;;;5.50;99.90;;;;;;4972706;28;20727;-70
2021/01/20 09:03:24;;;;;;;27.30;10.93;;;5.70;99.90;;;;;;4956818;28;20321;-70
2021/01/20 09:05:52;;;;;;;32.93;12.23;;;5.80;99.90;;;;;;4972765;28;20206;-70
2021/01/20 09:08:19;;;;;;;24.43;10.63;;;5.90;99.90;;;;;;4976073;28;20257;-70
2021/01/20 09:10:47;;;;;;;23.17;10.17;;;6.00;99.90;;;;;;4953126;29;20208;-70
2021/01/20 09:13:17;;;;;;;26.37;10.13;;;6.10;99.90;;;;;;4953508;29;20634;-70
2021/01/20 09:15:46;;;;;;;24.17;9.80;;;6.20;99.90;;;;;;4956670;28;20620;-70
2021/01/20 09:18:13;;;;;;;21.60;9.03;;;6.30;99.90;;;;;;4972430;28;20203;-70
2021/01/20 09:20:40;;;;;;;23.93;9.50;;;6.30;99.90;;;;;;4953662;29;20256;-70
2021/01/20 09:23:07;;;;;;;20.67;8.47;;;6.40;99.90;;;;;;4953382;29;20621;-70
2021/01/20 09:25:34;;;;;;;18.67;8.07;;;6.40;99.90;;;;;;4957673;28;20244;-70
2021/01/20 09:28:01;;;;;;;19.17;8.03;;;6.50;99.90;;;;;;4972462;28;20231;-70
2021/01/20 09:30:28;;;;;;;22.43;8.53;;;6.50;99.90;;;;;;4972264;28;20220;-70
2021/01/20 09:32:55;;;;;;;19.53;8.20;;;6.50;99.90;;;;;;4972525;28;20208;-70
2021/01/20 09:35:22;;;;;;;21.30;8.60;;;6.60;99.90;;;;;;4990409;28;20203;-69
2021/01/20 09:37:49;;;;;;;14.53;7.13;;;6.70;99.90;;;;;;4992406;28;20210;-69
2021/01/20 09:40:17;;;;;;;16.70;7.33;;;6.80;99.90;;;;;;4991868;28;20213;-69
2021/01/20 09:42:47;;;;;;;18.60;6.87;;;6.80;99.90;;;;;;5009548;28;20203;-70
2021/01/20 09:45:15;;;;;;;19.83;7.40;;;6.90;99.90;;;;;;4992003;28;20214;-69
2021/01/20 09:47:44;;;;;;;20.80;7.63;;;7.00;99.90;;;;;;5027539;28;20229;-69
2021/01/20 09:50:14;;;;;;;25.53;7.90;;;7.10;99.90;;;;;;5031302;28;20206;-69
2021/01/20 09:52:43;;;;;;;23.40;8.97;;;7.10;99.90;;;;;;5030991;28;20205;-69
2021/01/20 09:55:11;;;;;;;22.40;8.27;;;7.20;99.90;;;;;;5031023;28;20267;-69
2021/01/20 09:57:38;;;;;;;19.57;7.57;;;7.20;99.90;;;;;;5031250;28;20652;-69
2021/01/20 10:00:06;;;;;;;20.40;7.33;;;7.20;99.90;;;;;;5030198;28;20218;-70
2021/01/20 10:02:37;;;;;;;21.60;8.00;;;7.20;99.90;;;;;;5031238;28;20293;-69
2021/01/20 10:05:04;;;;;;;23.13;8.23;;;7.20;99.90;;;;;;5031536;28;20685;-69
2021/01/20 10:07:32;;;;;;;19.73;7.40;;;7.20;99.90;;;;;;5011051;28;20219;-69
2021/01/20 10:09:59;;;;;;;20.87;7.67;;;7.20;99.90;;;;;;5014266;28;20236;-70
2021/01/20 10:12:26;;;;;;;18.53;6.93;;;7.20;99.90;;;;;;4995152;28;20564;-70
2021/01/20 10:14:52;;;;;;;21.20;6.93;;;7.20;99.90;;;;;;4995066;28;20235;-70
2021/01/20 10:17:19;;;;;;;17.37;6.10;;;7.20;99.90;;;;;;5033069;28;20198;-70
2021/01/20 10:19:46;;;;;;;15.90;6.97;;;7.30;99.90;;;;;;5034808;28;20209;-70
2021/01/20 10:22:12;;;;;;;16.50;5.90;;;7.30;99.90;;;;;;4994949;28;20559;-70
2021/01/20 10:24:40;;;;;;;18.93;7.57;;;7.30;99.90;;;;;;4995600;28;20242;-70
2021/01/20 10:27:06;;;;;;;30.83;9.60;;;7.20;99.90;;;;;;4995012;28;20253;-70
2021/01/20 10:29:33;;;;;;;24.00;9.13;;;7.10;99.90;;;;;;4994675;28;20204;-70
2021/01/20 10:32:01;;;;;;;19.03;6.10;;;7.00;99.90;;;;;;5029298;28;20240;-70
2021/01/20 10:34:29;;;;;;;17.03;6.00;;;6.90;99.90;;;;;;5034038;28;20728;-70
2021/01/20 10:36:56;;;;;;;12.87;5.70;;;6.90;99.90;;;;;;5034632;28;20700;-70
2021/01/20 10:39:23;;;;;;;10.43;4.50;;;6.80;99.90;;;;;;4994704;28;20196;-70
2021/01/20 10:41:52;;;;;;;12.53;5.13;;;6.70;99.90;;;;;;4994670;28;20207;-70
2021/01/20 10:44:18;;;;;;;12.00;4.83;;;6.70;99.90;;;;;;4964522;28;20203;-70
2021/01/20 10:46:46;;;;;;;7.23;4.00;;;6.60;99.90;;;;;;4994876;28;20314;-70
2021/01/20 10:49:13;;;;;;;9.53;4.17;;;6.60;99.90;;;;;;4994848;28;20215;-70
2021/01/20 10:51:39;;;;;;;7.07;3.83;;;6.50;99.90;;;;;;4994538;28;20207;-70
2021/01/20 10:54:06;;;;;;;7.03;3.67;;;6.50;99.90;;;;;;5028459;28;20210;-70
2021/01/20 10:56:33;;;;;;;9.07;4.40;;;6.50;99.90;;;;;;5034103;28;20305;-70
2021/01/20 10:59:01;;;;;;;9.23;4.27;;;6.50;99.90;;;;;;5033352;28;20233;-70
2021/01/20 11:01:29;;;;;;;9.07;4.17;;;6.50;99.90;;;;;;5033422;28;20221;-70
2021/01/20 11:03:56;;;;;;;9.33;3.73;;;6.50;99.90;;;;;;5033423;28;20201;-70
2021/01/20 11:06:22;;;;;;;7.83;4.47;;;6.50;99.90;;;;;;5033967;28;20217;-70
2021/01/20 11:08:49;;;;;;;7.70;3.70;;;6.40;99.90;;;;;;5033502;28;20229;-70
2021/01/20 11:11:15;;;;;;;8.03;4.03;;;6.40;99.90;;;;;;5033782;28;20619;-70
2021/01/20 11:13:42;;;;;;;8.43;3.97;;;6.40;99.90;;;;;;5033764;28;20543;-70
2021/01/20 11:16:11;;;;;;;8.80;3.60;;;6.40;99.90;;;;;;5093229;27;20280;-70
2021/01/20 11:18:38;;;;;;;8.47;4.57;;;6.40;99.90;;;;;;5093158;28;20264;-70
2021/01/20 11:21:05;;;;;;;8.93;4.50;;;6.40;99.90;;;;;;5052924;28;20213;-70
2021/01/20 11:23:35;;;;;;;9.47;4.73;;;6.40;99.90;;;;;;5053177;28;20206;-70
2021/01/20 11:26:04;;;;;;;10.30;5.10;;;6.50;99.90;;;;;;5013713;28;20203;-70
2021/01/20 11:28:31;;;;;;;9.47;4.97;;;6.50;99.90;;;;;;5013184;28;20227;-70
2021/01/20 11:30:57;;;;;;;7.37;3.80;;;6.50;99.90;;;;;;5013548;28;20200;-70
2021/01/20 11:33:25;;;;;;;7.80;3.67;;;6.60;99.90;;;;;;5013301;28;20549;-70
2021/01/20 11:35:52;;;;;;;5.30;2.83;;;6.70;99.90;;;;;;5012924;28;20695;-69
2021/01/20 11:38:18;;;;;;;5.67;3.30;;;6.70;99.90;;;;;;4974194;28;20223;-69
2021/01/20 11:40:45;;;;;;;9.07;3.20;;;6.90;99.90;;;;;;4993044;28;20204;-69
2021/01/20 11:43:12;;;;;;;5.23;2.60;;;6.90;99.90;;;;;;4973239;28;20578;-69
2021/01/20 11:45:39;;;;;;;4.27;2.50;;;7.10;99.90;;;;;;4954725;29;20757;-69
2021/01/20 11:48:07;;;;;;;7.97;5.07;;;7.20;99.90;;;;;;4935585;29;20229;-69
2021/01/20 11:50:35;;;;;;;9.47;6.40;;;7.40;99.90;;;;;;4951951;29;20213;-69
2021/01/20 11:53:02;;;;;;;10.77;6.30;;;7.50;99.90;;;;;;4937969;29;20261;-69
2021/01/20 11:55:28;;;;;;;10.30;6.10;;;7.60;99.90;;;;;;4934997;29;20652;-70
2021/01/20 11:57:55;;;;;;;15.30;8.10;;;7.80;99.90;;;;;;4932117;29;20253;-70
2021/01/20 12:00:22;;;;;;;13.97;8.20;;;8.00;99.90;;;;;;4916540;29;20214;-69
2021/01/20 12:02:49;;;;;;;24.03;10.67;;;8.20;99.90;;;;;;4916590;29;20214;-69
2021/01/20 12:05:17;;;;;;;11.93;5.90;;;8.30;99.90;;;;;;4916132;29;20204;-70
2021/01/20 12:07:46;;;;;;;16.20;6.97;;;8.50;99.90;;;;;;4916129;29;20234;-70
2021/01/20 12:10:14;;;;;;;24.73;9.33;;;8.50;99.90;;;;;;4916005;29;20211;-70
2021/01/20 12:12:41;;;;;;;17.60;6.03;;;8.60;99.90;;;;;;4915894;29;20238;-69
2021/01/20 12:15:08;;;;;;;11.73;5.13;;;8.70;99.90;;;;;;4941539;28;20648;-70
2021/01/20 12:17:35;;;;;;;23.37;8.47;;;8.70;99.90;;;;;;4973817;28;20647;-69
2021/01/20 12:20:03;;;;;;;25.53;10.53;;;8.60;99.90;;;;;;4973285;28;20212;-69
2021/01/20 12:22:29;;;;;;;15.07;6.57;;;8.60;99.90;;;;;;4978022;28;20216;-70
2021/01/20 12:24:57;;;;;;;7.00;4.20;;;8.50;99.90;;;;;;4953988;28;20216;-69
2021/01/20 12:27:23;;;;;;;9.13;5.33;;;8.40;99.90;;;;;;4954093;29;20221;-71
2021/01/20 12:29:50;;;;;;;17.20;5.83;;;8.30;99.90;;;;;;4970618;28;20737;-70
2021/01/20 12:32:17;;;;;;;11.97;5.07;;;8.20;99.90;;;;;;4967400;28;20697;-71
2021/01/20 12:34:43;;;;;;;10.07;4.40;;;8.10;99.90;;;;;;4954180;29;20612;-71
2021/01/20 12:37:10;;;;;;;9.47;4.67;;;8.10;99.90;;;;;;4953902;28;20244;-71
2021/01/20 12:39:37;;;;;;;10.30;4.53;;;8.00;99.90;;;;;;4953957;28;20209;-71
2021/01/20 12:42:05;;;;;;;7.37;3.97;;;8.00;99.90;;;;;;4953803;29;20206;-70
2021/01/20 12:44:33;;;;;;;10.53;4.43;;;8.00;99.90;;;;;;5003492;28;20219;-71
2021/01/20 12:46:59;;;;;;;8.97;4.20;;;7.90;99.90;;;;;;5011928;28;20223;-71
2021/01/20 12:49:26;;;;;;;11.37;4.80;;;7.90;99.90;;;;;;5011962;28;20262;-71
2021/01/20 12:51:53;;;;;;;8.40;4.07;;;7.90;99.90;;;;;;4992406;28;20262;-71
2021/01/20 12:54:19;;;;;;;8.27;4.60;;;7.80;99.90;;;;;;4992211;28;20208;-71
2021/01/20 12:56:46;;;;;;;7.77;3.77;;;7.80;99.90;;;;;;5009245;28;20249;-70
2021/01/20 12:59:13;;;;;;;7.57;4.10;;;7.70;99.90;;;;;;5011716;28;20545;-70
2021/01/20 13:01:40;;;;;;;5.17;3.13;;;7.70;99.90;;;;;;5011740;28;20282;-69
2021/01/20 13:04:07;;;;;;;5.17;3.13;;;7.60;99.90;;;;;;5005610;28;20214;-70
2021/01/20 13:06:33;;;;;;;7.70;3.47;;;7.60;99.90;;;;;;4972440;28;20211;-70
2021/01/20 13:09:00;;;;;;;4.80;2.87;;;7.60;99.90;;;;;;4972440;28;20233;-71
2021/01/20 13:11:26;;;;;;;3.87;2.87;;;7.60;99.90;;;;;;4972414;28;20623;-69
2021/01/20 13:13:54;;;;;;;5.03;3.00;;;7.50;99.90;;;;;;4940409;28;20272;-69